Time,TemperatureF,DewpointF,PressureIn,WindDirection,WindDirectionDegrees,WindSpeedMPH,WindSpeedGustMPH,Humidity,HourlyPrecipIn,Conditions,Clouds,dailyrainin,SolarRadiationWatts/m^2,SoftwareType,DateUTC
2013-07-16 12:22:00,63.0,51.0,-100.00,West,274,4.0,10.0,66,-99.99,,,0.37,431.000000,,2013-07-16 18:22:00,
2013-07-16 12:32:00,63.0,51.0,-100.00,West,274,4.0,10.0,66,-99.99,,,0.37,431.000000,,2013-07-16 18:32:00,
2013-07-16 12:43:00,63.0,51.0,-100.00,West,274,4.0,10.0,66,-99.99,,,0.37,431.000000,,2013-07-16 18:43:00,
2013-07-16 12:52:00,63.0,51.0,-100.00,West,274,4.0,10.0,66,-99.99,,,0.37,431.000000,,2013-07-16 18:52:00,
2013-07-16 13:22:00,68.0,52.0,-100.00,SW,220,4.0,10.0,57,0.00,,,0.36,753.000000,,2013-07-16 19:22:00,
2013-07-16 13:32:00,68.0,52.0,-100.00,SW,220,4.0,10.0,57,0.00,,,0.36,753.000000,,2013-07-16 19:32:00,
2013-07-16 13:43:00,68.0,52.0,-100.00,SW,220,4.0,10.0,57,0.00,,,0.36,753.000000,,2013-07-16 19:43:00,
2013-07-16 13:52:00,68.0,52.0,-100.00,SW,220,4.0,10.0,57,0.00,,,0.36,753.000000,,2013-07-16 19:52:00,
2013-07-16 14:22:00,72.0,53.0,-100.00,SSW,202,4.0,10.0,51,0.00,,,0.34,1031.000000,,2013-07-16 20:22:00,
2013-07-16 14:32:00,72.0,53.0,-100.00,SSW,202,4.0,10.0,51,0.00,,,0.34,1031.000000,,2013-07-16 20:32:00,
2013-07-16 14:43:00,72.0,53.0,-100.00,SSW,202,4.0,10.0,51,0.00,,,0.34,1031.000000,,2013-07-16 20:43:00,
2013-07-16 14:52:00,72.0,53.0,-100.00,SSW,202,4.0,10.0,51,0.00,,,0.34,1031.000000,,2013-07-16 20:52:00,
2013-07-16 15:32:00,71.0,52.0,-100.00,SW,225,3.0,15.0,51,0.00,,,0.34,636.000000,,2013-07-16 21:32:00,
2013-07-16 15:43:00,71.0,52.0,-100.00,SW,225,3.0,15.0,51,0.00,,,0.34,636.000000,,2013-07-16 21:43:00,
2013-07-16 15:52:00,71.0,52.0,-100.00,SW,225,3.0,15.0,51,0.00,,,0.34,636.000000,,2013-07-16 21:52:00,
2013-07-16 16:33:00,72.0,51.0,-100.00,West,259,6.0,11.0,48,0.00,,,0.31,790.000000,,2013-07-16 22:33:00,
2013-07-16 16:43:00,72.0,51.0,-100.00,West,259,6.0,11.0,48,0.00,,,0.31,790.000000,,2013-07-16 22:43:00,
2013-07-16 16:52:00,72.0,51.0,-100.00,West,259,6.0,11.0,48,0.00,,,0.31,790.000000,,2013-07-16 22:52:00,
2013-07-16 17:32:00,77.0,51.0,-100.00,West,274,5.0,13.0,40,0.00,,,0.28,773.000000,,2013-07-16 23:32:00,
2013-07-16 17:43:00,77.0,51.0,-100.00,West,274,5.0,13.0,40,0.00,,,0.28,773.000000,,2013-07-16 23:43:00,
2013-07-16 17:52:00,77.0,51.0,-100.00,West,274,5.0,13.0,40,0.00,,,0.28,773.000000,,2013-07-16 23:52:00,
2013-07-16 18:22:00,73.0,50.0,-100.00,SSW,209,5.0,10.0,44,0.00,,,0.20,403.000000,,2013-07-17 00:22:00,
2013-07-16 18:33:00,73.0,50.0,-100.00,SSW,209,5.0,10.0,44,0.00,,,0.20,403.000000,,2013-07-17 00:33:00,
2013-07-16 18:42:00,73.0,50.0,-100.00,SSW,209,5.0,10.0,44,0.00,,,0.20,403.000000,,2013-07-17 00:42:00,
2013-07-16 18:52:00,73.0,50.0,-100.00,SSW,209,5.0,10.0,44,0.00,,,0.20,403.000000,,2013-07-17 00:52:00,
2013-07-16 19:22:00,71.0,51.0,-100.00,NW,314,5.0,7.0,49,0.00,,,0.12,137.000000,,2013-07-17 01:22:00,
2013-07-16 19:32:00,71.0,51.0,-100.00,NW,314,5.0,7.0,49,0.00,,,0.12,137.000000,,2013-07-17 01:32:00,
2013-07-16 19:43:00,71.0,51.0,-100.00,NW,314,5.0,7.0,49,0.00,,,0.12,137.000000,,2013-07-17 01:43:00,
2013-07-16 19:52:00,71.0,51.0,-100.00,NW,314,5.0,7.0,49,0.00,,,0.12,137.000000,,2013-07-17 01:52:00,
2013-07-16 20:22:00,66.0,51.0,-100.00,NW,319,7.0,12.0,58,0.00,,,0.12,24.000000,,2013-07-17 02:22:00,
2013-07-16 20:32:00,66.0,51.0,-100.00,NW,319,7.0,12.0,58,0.00,,,0.12,24.000000,,2013-07-17 02:32:00,
2013-07-16 20:43:00,66.0,51.0,-100.00,NW,319,7.0,12.0,58,0.00,,,0.12,24.000000,,2013-07-17 02:43:00,
2013-07-16 20:53:00,66.0,51.0,-100.00,NW,319,7.0,12.0,58,0.00,,,0.12,24.000000,,2013-07-17 02:53:00,
2013-07-16 21:22:00,64.0,52.0,-100.00,North,4,4.0,13.0,66,0.00,,,0.12,3.000000,,2013-07-17 03:22:00,
2013-07-16 21:32:00,64.0,52.0,-100.00,North,4,4.0,13.0,66,0.00,,,0.12,3.000000,,2013-07-17 03:32:00,
2013-07-16 21:43:00,64.0,52.0,-100.00,North,4,4.0,13.0,66,0.00,,,0.12,3.000000,,2013-07-17 03:43:00,
2013-07-16 21:53:00,64.0,52.0,-100.00,North,4,4.0,13.0,66,0.00,,,0.12,3.000000,,2013-07-17 03:53:00,
2013-07-16 22:22:00,63.0,53.0,-100.00,ESE,117,8.0,13.0,69,0.00,,,-99.99,0.000000,,2013-07-17 04:22:00,
2013-07-16 22:32:00,63.0,53.0,-100.00,ESE,117,8.0,13.0,69,0.00,,,-99.99,0.000000,,2013-07-17 04:32:00,
2013-07-16 22:43:00,63.0,53.0,-100.00,ESE,117,8.0,13.0,69,0.00,,,-99.99,0.000000,,2013-07-17 04:43:00,
2013-07-16 22:53:00,63.0,53.0,-100.00,ESE,117,8.0,13.0,69,0.00,,,-99.99,0.000000,,2013-07-17 04:53:00,
2013-07-16 23:22:00,61.0,51.0,-100.00,NE,34,1.0,8.0,69,0.00,,,-99.99,0.000000,,2013-07-17 05:22:00,
2013-07-16 23:32:00,61.0,51.0,-100.00,NE,34,1.0,8.0,69,0.00,,,-99.99,0.000000,,2013-07-17 05:32:00,
2013-07-16 23:43:00,61.0,51.0,-100.00,NE,34,1.0,8.0,69,0.00,,,-99.99,0.000000,,2013-07-17 05:43:00,
2013-07-16 23:52:00,61.0,51.0,-100.00,NE,34,1.0,8.0,69,0.00,,,-99.99,0.000000,,2013-07-17 05:52:00,